createdAt,value
2018-06-27T00:00:12.817Z,96.00
2018-06-27T00:02:42.198Z,96.00
2018-06-27T00:05:11.451Z,95.90
2018-06-27T00:07:40.753Z,96.10
2018-06-27T00:10:10.038Z,96.20
2018-06-27T00:12:39.268Z,96.30
2018-06-27T00:15:08.541Z,96.60
2018-06-27T00:20:06.783Z,96.40
2018-06-27T00:22:36.131Z,96.30
2018-06-27T00:25:05.454Z,96.20
2018-06-27T00:27:34.636Z,96.20
2018-06-27T00:32:32.648Z,96.20
2018-06-27T00:35:01.946Z,96.30
2018-06-27T00:37:37.795Z,96.40
2018-06-27T00:40:07.027Z,96.40
2018-06-27T00:42:36.336Z,96.50
2018-06-27T00:45:06.611Z,96.70
2018-06-27T00:47:35.828Z,96.70
2018-06-27T00:50:08.164Z,96.80
2018-06-27T00:52:37.358Z,96.90
2018-06-27T00:55:07.025Z,97.00
2018-06-27T00:57:36.264Z,97.10
2018-06-27T01:00:05.637Z,97.10
2018-06-27T01:02:34.847Z,97.10
2018-06-27T01:05:04.107Z,97.20
2018-06-27T01:07:33.306Z,97.10
2018-06-27T01:10:02.504Z,97.20
2018-06-27T01:12:31.707Z,97.40
2018-06-27T01:15:00.908Z,97.50
2018-06-27T01:17:30.139Z,97.70
2018-06-27T01:19:59.375Z,97.60
2018-06-27T01:22:28.543Z,97.60
2018-06-27T01:24:57.782Z,97.70
2018-06-27T01:27:26.974Z,97.70
2018-06-27T01:29:56.215Z,97.70
2018-06-27T01:32:25.453Z,97.70
2018-06-27T01:34:54.630Z,97.70
2018-06-27T01:37:23.852Z,97.60
2018-06-27T01:39:53.016Z,97.60
2018-06-27T01:44:51.096Z,97.70
2018-06-27T01:47:20.275Z,97.80
2018-06-27T01:49:49.503Z,97.90
2018-06-27T01:52:18.945Z,97.90
2018-06-27T01:54:48.172Z,97.90
2018-06-27T01:57:17.390Z,98.00
2018-06-27T01:59:46.614Z,98.00
2018-06-27T02:02:15.795Z,98.00
2018-06-27T02:04:45.018Z,98.10
2018-06-27T02:07:14.190Z,98.00
2018-06-27T02:09:43.438Z,98.00
2018-06-27T02:12:12.637Z,98.00
2018-06-27T02:14:41.847Z,98.00
2018-06-27T02:17:11.074Z,98.10
2018-06-27T02:22:09.175Z,98.20
2018-06-27T02:24:38.438Z,98.20
2018-06-27T02:27:07.647Z,98.20
2018-06-27T02:29:36.887Z,98.40
2018-06-27T02:32:06.096Z,98.40
2018-06-27T02:34:35.303Z,98.30
2018-06-27T02:37:04.492Z,98.30
2018-06-27T02:39:33.727Z,98.20
2018-06-27T02:42:02.930Z,98.30
2018-06-27T02:44:32.114Z,98.30
2018-06-27T02:47:01.327Z,98.20
2018-06-27T02:49:30.572Z,98.50
2018-06-27T02:51:59.800Z,98.20
2018-06-27T02:54:28.996Z,98.30
2018-06-27T02:56:58.595Z,98.30
2018-06-27T02:59:27.832Z,98.30
2018-06-27T03:01:57.231Z,98.30
2018-06-27T03:04:26.436Z,98.30
2018-06-27T03:06:55.723Z,98.20
2018-06-27T03:09:25.031Z,98.70
2018-06-27T03:11:54.264Z,98.40
2018-06-27T03:14:23.459Z,98.50
2018-06-27T03:16:52.849Z,98.30
2018-06-27T03:19:22.089Z,98.30
2018-06-27T03:21:51.299Z,98.40
2018-06-27T03:24:20.558Z,98.60
2018-06-27T03:26:49.825Z,98.60
2018-06-27T03:29:19.442Z,98.70
2018-06-27T03:31:48.643Z,98.70
2018-06-27T03:34:17.861Z,98.50
2018-06-27T03:36:47.060Z,98.60
2018-06-27T03:39:16.267Z,98.60
2018-06-27T03:41:45.479Z,98.50
2018-06-27T03:44:15.453Z,98.50
2018-06-27T03:46:44.679Z,98.40
2018-06-27T03:49:13.871Z,98.40
2018-06-27T03:51:43.240Z,98.20
2018-06-27T03:54:12.486Z,98.00
2018-06-27T03:56:41.732Z,97.70
2018-06-27T03:59:10.959Z,97.80
2018-06-27T04:01:40.163Z,97.80
2018-06-27T04:04:09.367Z,97.60
2018-06-27T04:06:38.628Z,97.80
2018-06-27T04:09:09.940Z,98.00
2018-06-27T04:11:39.708Z,98.20
2018-06-27T04:14:08.923Z,98.30
2018-06-27T04:16:38.131Z,98.20
2018-06-27T04:19:07.371Z,98.20
2018-06-27T04:21:36.743Z,98.40
2018-06-27T04:24:06.261Z,98.30
2018-06-27T04:26:35.470Z,98.20
2018-06-27T04:29:05.053Z,98.10
2018-06-27T04:31:34.349Z,97.90
2018-06-27T04:34:03.798Z,97.70
2018-06-27T04:36:33.142Z,97.70
2018-06-27T04:39:02.341Z,97.70
2018-06-27T04:41:31.582Z,97.70
2018-06-27T04:44:00.806Z,97.60
2018-06-27T04:46:30.006Z,97.50
2018-06-27T04:48:59.208Z,97.10
2018-06-27T04:51:28.427Z,97.20
2018-06-27T04:53:57.755Z,97.00
2018-06-27T04:56:27.519Z,96.90
2018-06-27T04:58:56.735Z,96.90
2018-06-27T05:01:25.965Z,96.80
2018-06-27T05:03:55.163Z,96.60
2018-06-27T05:06:24.395Z,96.40
2018-06-27T05:08:53.604Z,96.20
2018-06-27T05:11:22.895Z,95.90
2018-06-27T05:13:52.150Z,95.70
2018-06-27T05:16:21.435Z,95.20
2018-06-27T05:18:51.532Z,95.40
2018-06-27T05:21:20.783Z,95.30
2018-06-27T05:23:50.055Z,95.00
2018-06-27T05:26:19.277Z,95.00
2018-06-27T05:28:48.487Z,95.00
2018-06-27T05:31:17.675Z,95.10
2018-06-27T05:33:46.955Z,95.00
2018-06-27T05:36:16.301Z,94.60
2018-06-27T05:38:45.531Z,94.70
2018-06-27T05:41:14.740Z,94.90
2018-06-27T05:43:43.956Z,95.20
2018-06-27T05:46:13.166Z,94.80
2018-06-27T05:48:42.551Z,94.80
2018-06-27T05:51:12.043Z,94.40
2018-06-27T05:53:41.302Z,94.30
2018-06-27T05:56:10.723Z,93.60
2018-06-27T05:58:39.959Z,93.10
2018-06-27T06:01:09.166Z,92.80
2018-06-27T06:03:38.573Z,92.70
2018-06-27T06:06:07.802Z,92.70
2018-06-27T06:08:37.076Z,92.70
2018-06-27T06:11:06.624Z,92.80
2018-06-27T06:13:35.865Z,92.70
2018-06-27T06:16:05.316Z,92.80
2018-06-27T06:18:34.535Z,93.20
2018-06-27T06:21:03.778Z,92.60
2018-06-27T06:23:32.988Z,92.20
2018-06-27T06:26:02.218Z,92.70
2018-06-27T06:28:31.421Z,92.00
2018-06-27T06:31:00.661Z,91.80
2018-06-27T06:33:29.881Z,91.50
2018-06-27T06:35:59.115Z,90.70
2018-06-27T06:38:28.343Z,89.80
2018-06-27T06:40:57.887Z,89.50
2018-06-27T06:43:27.173Z,88.40
2018-06-27T06:45:56.472Z,86.40
2018-06-27T06:48:25.668Z,84.80
2018-06-27T06:50:54.952Z,83.40
2018-06-27T06:53:24.196Z,81.50
2018-06-27T06:55:53.467Z,79.70
2018-06-27T06:58:22.711Z,78.40
2018-06-27T07:00:51.936Z,78.60
2018-06-27T07:03:21.178Z,77.60
2018-06-27T07:05:50.428Z,76.00
2018-06-27T07:10:49.180Z,74.20
2018-06-27T07:13:18.736Z,73.70
2018-06-27T07:15:48.120Z,71.90
2018-06-27T07:18:17.620Z,71.40
2018-06-27T07:20:46.808Z,72.20
2018-06-27T07:23:16.090Z,72.70
2018-06-27T07:25:45.478Z,71.60
2018-06-27T07:28:14.788Z,69.80
2018-06-27T07:30:44.039Z,69.80
2018-06-27T07:33:13.244Z,69.60
2018-06-27T07:35:42.443Z,70.60
2018-06-27T07:38:11.815Z,68.90
2018-06-27T07:40:41.053Z,67.70
2018-06-27T07:43:10.272Z,67.20
2018-06-27T07:45:39.936Z,67.00
2018-06-27T07:48:09.166Z,67.50
2018-06-27T07:50:38.417Z,66.80
2018-06-27T07:53:07.661Z,67.90
2018-06-27T07:55:36.919Z,69.20
2018-06-27T07:58:06.235Z,69.00
2018-06-27T08:00:35.512Z,68.90
2018-06-27T08:03:04.883Z,67.40
2018-06-27T08:05:34.256Z,67.40
2018-06-27T08:08:03.511Z,66.50
2018-06-27T08:10:32.753Z,66.40
2018-06-27T08:13:02.016Z,64.70
2018-06-27T08:18:00.176Z,65.30
2018-06-27T08:20:29.303Z,65.00
2018-06-27T08:22:58.614Z,65.30
2018-06-27T08:25:27.956Z,66.70
2018-06-27T08:27:57.233Z,66.30
2018-06-27T08:30:26.537Z,65.80
2018-06-27T08:32:56.151Z,64.30
2018-06-27T08:35:25.512Z,62.10
2018-06-27T08:37:54.774Z,63.80
2018-06-27T08:40:24.332Z,63.40
2018-06-27T08:42:53.575Z,64.60
2018-06-27T08:45:23.633Z,64.80
2018-06-27T08:47:52.883Z,64.30
2018-06-27T08:50:22.207Z,61.80
2018-06-27T08:52:51.445Z,62.30
2018-06-27T08:55:20.705Z,63.70
2018-06-27T08:57:49.953Z,64.00
2018-06-27T09:00:19.501Z,64.10
2018-06-27T09:02:48.947Z,63.60
2018-06-27T09:05:18.480Z,63.80
2018-06-27T09:07:47.738Z,61.50
2018-06-27T09:10:16.936Z,62.90
2018-06-27T09:12:46.164Z,61.30
2018-06-27T09:15:15.393Z,60.80
2018-06-27T09:17:44.608Z,63.10
2018-06-27T09:20:13.838Z,63.90
2018-06-27T09:22:43.066Z,61.90
2018-06-27T09:25:12.355Z,60.50
2018-06-27T09:27:41.614Z,59.10
2018-06-27T09:30:11.089Z,61.00
2018-06-27T09:32:40.346Z,58.90
2018-06-27T09:35:09.564Z,58.10
2018-06-27T09:37:38.805Z,59.70
2018-06-27T09:40:08.023Z,59.30
2018-06-27T09:42:37.291Z,59.70
2018-06-27T09:45:06.515Z,59.90
2018-06-27T09:47:36.059Z,58.00
2018-06-27T09:50:05.884Z,58.30
2018-06-27T09:52:35.120Z,61.10
2018-06-27T09:55:04.415Z,59.60
2018-06-27T10:00:02.391Z,58.60
2018-06-27T10:02:31.931Z,56.90
2018-06-27T10:05:02.009Z,57.30
2018-06-27T10:07:31.339Z,58.50
2018-06-27T10:10:00.526Z,58.90
2018-06-27T10:12:29.724Z,59.50
2018-06-27T10:14:59.346Z,57.30
2018-06-27T10:17:28.817Z,57.80
2018-06-27T10:19:58.073Z,58.10
2018-06-27T10:22:27.389Z,57.60
2018-06-27T10:24:56.648Z,57.00
2018-06-27T10:27:25.982Z,55.90
2018-06-27T10:29:55.197Z,57.20
2018-06-27T10:32:24.686Z,55.60
2018-06-27T10:34:54.332Z,57.10
2018-06-27T10:37:23.507Z,57.50
2018-06-27T10:39:52.720Z,57.50
2018-06-27T10:42:22.170Z,56.10
2018-06-27T10:44:51.493Z,56.50
2018-06-27T10:47:20.805Z,56.50
2018-06-27T10:49:50.094Z,58.10
2018-06-27T10:52:19.362Z,58.20
2018-06-27T10:54:51.566Z,56.30
2018-06-27T10:57:21.658Z,55.80
2018-06-27T10:59:51.989Z,55.90
2018-06-27T11:02:22.018Z,55.80
2018-06-27T11:04:51.284Z,55.60
2018-06-27T11:07:20.496Z,56.90
2018-06-27T11:09:49.707Z,57.00
2018-06-27T11:12:18.908Z,57.40
2018-06-27T11:14:48.128Z,57.20
2018-06-27T11:17:17.380Z,56.40
2018-06-27T11:19:46.588Z,56.90
2018-06-27T11:22:15.861Z,55.60
2018-06-27T11:24:45.097Z,56.50
2018-06-27T11:27:14.369Z,56.60
2018-06-27T11:29:43.582Z,55.30
2018-06-27T11:32:12.812Z,54.60
2018-06-27T11:34:42.152Z,56.20
2018-06-27T11:37:11.560Z,56.00
2018-06-27T11:39:41.061Z,56.00
2018-06-27T11:42:10.304Z,57.20
2018-06-27T11:44:39.940Z,57.00
2018-06-27T11:47:09.157Z,57.50
2018-06-27T11:49:38.616Z,56.20
2018-06-27T11:52:07.843Z,56.90
2018-06-27T11:54:37.282Z,55.40
2018-06-27T11:57:06.567Z,54.50
2018-06-27T11:59:35.788Z,54.80
2018-06-27T12:02:05.264Z,56.20
2018-06-27T12:04:34.499Z,55.30
2018-06-27T12:07:03.801Z,56.60
2018-06-27T12:09:33.068Z,56.50
2018-06-27T12:12:02.411Z,56.90
2018-06-27T12:14:31.704Z,56.90
2018-06-27T12:17:01.015Z,55.60
2018-06-27T12:19:34.595Z,56.00
2018-06-27T12:22:04.025Z,56.00
2018-06-27T12:24:33.374Z,54.60
2018-06-27T12:27:02.573Z,54.60
2018-06-27T12:29:31.813Z,52.90
2018-06-27T12:32:01.124Z,53.30
2018-06-27T12:34:30.392Z,53.30
2018-06-27T12:37:00.371Z,50.10
2018-06-27T12:39:29.692Z,51.20
2018-06-27T12:41:58.952Z,50.20
2018-06-27T12:46:57.001Z,49.00
2018-06-27T12:49:26.317Z,49.90
2018-06-27T12:51:55.511Z,50.90
2018-06-27T12:54:24.820Z,50.90
2018-06-27T12:56:54.059Z,50.50
2018-06-27T12:59:23.995Z,51.40
2018-06-27T13:01:53.388Z,51.80
2018-06-27T13:04:22.626Z,52.20
2018-06-27T13:06:51.874Z,49.60
2018-06-27T13:09:21.209Z,49.30
2018-06-27T13:11:50.425Z,49.30
2018-06-27T13:14:19.664Z,47.40
2018-06-27T13:16:48.963Z,47.50
2018-06-27T13:19:18.190Z,47.20
2018-06-27T13:21:47.827Z,47.40
2018-06-27T13:24:17.235Z,48.20
2018-06-27T13:29:15.525Z,47.40
2018-06-27T13:31:44.776Z,48.30
2018-06-27T13:34:14.215Z,45.60
2018-06-27T13:36:43.464Z,45.80
2018-06-27T13:39:12.741Z,45.50
2018-06-27T13:41:46.877Z,45.00
2018-06-27T13:44:16.084Z,44.70
2018-06-27T13:46:45.408Z,45.40
2018-06-27T13:49:14.670Z,47.00
2018-06-27T13:51:43.932Z,46.30
2018-06-27T13:54:13.175Z,47.20
2018-06-27T13:56:42.439Z,46.20
2018-06-27T13:59:11.743Z,46.10
2018-06-27T14:01:41.017Z,44.70
2018-06-27T14:04:10.355Z,44.00
2018-06-27T14:06:39.642Z,44.00
2018-06-27T14:09:09.770Z,44.70
2018-06-27T14:11:39.052Z,44.90
2018-06-27T14:14:08.730Z,45.30
2018-06-27T14:16:37.935Z,44.90
2018-06-27T14:19:07.131Z,44.90
2018-06-27T14:21:36.368Z,45.10
2018-06-27T14:24:05.725Z,45.30
2018-06-27T14:26:35.866Z,45.30
2018-06-27T14:29:05.157Z,43.70
2018-06-27T14:31:34.562Z,44.60
2018-06-27T14:34:03.823Z,42.40
2018-06-27T14:36:33.112Z,43.70
2018-06-27T14:39:02.340Z,43.90
2018-06-27T14:41:31.627Z,44.40
2018-06-27T14:44:00.894Z,43.60
2018-06-27T14:46:30.532Z,43.60
2018-06-27T14:48:59.793Z,42.20
2018-06-27T14:51:29.951Z,42.80
2018-06-27T14:53:59.197Z,43.90
2018-06-27T14:56:28.489Z,43.90
2018-06-27T14:59:04.188Z,42.60
2018-06-27T15:01:33.656Z,42.80
2018-06-27T15:04:02.955Z,42.80
2018-06-27T15:06:32.236Z,42.30
2018-06-27T15:09:01.522Z,41.90
2018-06-27T15:11:30.770Z,40.40
2018-06-27T15:14:00.082Z,40.50
2018-06-27T15:16:29.344Z,42.60
2018-06-27T15:18:58.596Z,41.90
2018-06-27T15:21:27.866Z,41.30
2018-06-27T15:23:57.388Z,36.50
2018-06-27T15:26:26.645Z,36.80
2018-06-27T15:28:56.160Z,35.90
2018-06-27T15:31:25.411Z,36.10
2018-06-27T15:33:54.761Z,35.00
2018-06-27T15:36:24.504Z,36.20
2018-06-27T15:38:53.745Z,36.30
2018-06-27T15:41:23.014Z,36.60
2018-06-27T15:43:52.287Z,36.20
2018-06-27T15:46:21.642Z,36.10
2018-06-27T15:48:50.924Z,36.00
2018-06-27T15:51:26.799Z,35.70
2018-06-27T15:53:56.068Z,35.80
2018-06-27T15:56:25.373Z,36.90
2018-06-27T15:58:55.034Z,36.60
2018-06-27T16:01:24.328Z,36.70
2018-06-27T16:03:53.781Z,36.80
2018-06-27T16:06:23.277Z,36.00
2018-06-27T16:08:53.319Z,34.40
2018-06-27T16:13:51.471Z,35.60
2018-06-27T16:16:20.739Z,36.10
2018-06-27T16:18:50.099Z,36.70
2018-06-27T16:21:19.336Z,37.00
2018-06-27T16:23:48.630Z,36.50
2018-06-27T16:26:18.923Z,37.60
2018-06-27T16:28:48.233Z,37.50
2018-06-27T16:31:17.690Z,38.30
2018-06-27T16:33:46.972Z,37.60
2018-06-27T16:36:16.220Z,38.50
2018-06-27T16:38:45.533Z,38.40
2018-06-27T16:43:43.636Z,38.90
2018-06-27T16:46:13.142Z,40.50
2018-06-27T16:48:42.359Z,39.90
2018-06-27T16:51:11.876Z,40.70
2018-06-27T16:53:41.166Z,40.80
2018-06-27T16:56:10.406Z,40.00
2018-06-27T16:58:39.716Z,40.40
2018-06-27T17:01:09.152Z,40.70
2018-06-27T17:03:38.344Z,40.80
2018-06-27T17:06:11.465Z,40.70
2018-06-27T17:08:40.833Z,41.10
2018-06-27T17:11:10.133Z,40.90
2018-06-27T17:13:39.432Z,43.20
2018-06-27T17:16:09.114Z,42.30
2018-06-27T17:18:38.424Z,42.30
2018-06-27T17:21:08.164Z,42.40
2018-06-27T17:23:37.957Z,42.40
2018-06-27T17:31:59.399Z,42.10
2018-06-27T17:34:28.726Z,41.60
2018-06-27T17:37:02.131Z,42.10
2018-06-27T17:39:33.253Z,42.70
2018-06-27T17:42:02.589Z,43.00
2018-06-27T17:44:32.452Z,43.40
2018-06-27T17:47:02.800Z,42.60
2018-06-27T17:49:32.550Z,42.70
2018-06-27T17:52:06.373Z,41.90
2018-06-27T17:54:35.710Z,41.30
2018-06-27T17:57:05.136Z,42.50
2018-06-27T17:59:37.063Z,43.60
2018-06-27T18:02:12.236Z,42.30
2018-06-27T18:04:43.146Z,42.60
2018-06-27T18:07:12.483Z,43.00
2018-06-27T18:09:41.821Z,44.20
2018-06-27T18:12:12.162Z,43.90
2018-06-27T18:14:41.654Z,43.60
2018-06-27T18:17:11.462Z,43.80
2018-06-27T18:19:41.458Z,44.20
2018-06-27T18:22:11.782Z,43.60
2018-06-27T18:24:41.505Z,43.30
2018-06-27T18:40:12.083Z,43.30
2018-06-27T18:42:42.754Z,44.90
2018-06-27T18:45:13.049Z,44.80
2018-06-27T18:47:43.207Z,45.80
2018-06-27T18:50:12.638Z,46.10
2018-06-27T18:52:43.024Z,45.80
2018-06-27T18:55:13.307Z,46.70
2018-06-27T18:57:47.164Z,46.30
2018-06-27T19:00:16.919Z,47.60
2018-06-27T19:02:47.686Z,47.70
2018-06-27T19:05:17.283Z,46.90
2018-06-27T19:07:46.843Z,47.30
2018-06-27T19:10:16.818Z,48.00
2018-06-27T19:12:52.877Z,48.50
2018-06-27T19:15:22.596Z,48.00
2018-06-27T19:17:52.034Z,49.00
2018-06-27T19:20:23.517Z,48.90
2018-06-27T19:22:53.404Z,49.80
2018-06-27T19:25:22.850Z,50.20
2018-06-27T19:27:52.372Z,50.00
2018-06-27T19:30:22.391Z,50.70
2018-06-27T19:32:51.755Z,50.90
2018-06-27T19:35:21.168Z,50.70
2018-06-27T19:37:50.585Z,51.20
2018-06-27T19:40:20.356Z,52.50
2018-06-27T19:42:49.704Z,52.70
2018-06-27T19:45:19.491Z,53.10
2018-06-27T19:47:53.530Z,53.50
2018-06-27T19:50:23.100Z,53.50
2018-06-27T19:52:52.572Z,53.80
2018-06-27T19:55:22.242Z,54.70
2018-06-27T19:57:51.569Z,55.00
2018-06-27T20:00:21.229Z,55.80
2018-06-27T20:02:51.170Z,56.40
2018-06-27T20:05:21.069Z,55.30
2018-06-27T20:07:50.613Z,55.80
2018-06-27T20:10:20.030Z,56.00
2018-06-27T20:12:50.331Z,56.10
2018-06-27T20:15:20.732Z,56.10
2018-06-27T20:17:50.299Z,57.00
2018-06-27T20:20:19.742Z,57.00
2018-06-27T20:22:53.467Z,57.00
2018-06-27T20:25:25.021Z,58.10
2018-06-27T20:27:54.393Z,58.50
2018-06-27T20:30:24.819Z,59.00
2018-06-27T20:32:54.228Z,58.90
2018-06-27T20:35:24.955Z,59.50
2018-06-27T20:37:54.482Z,59.50
2018-06-27T20:40:33.163Z,60.00
2018-06-27T20:43:02.795Z,59.50
2018-06-27T20:55:19.986Z,60.50
2018-06-27T20:57:49.246Z,62.20
2018-06-27T21:00:18.667Z,62.60
2018-06-27T21:02:48.619Z,63.10
2018-06-27T21:05:17.844Z,63.30
2018-06-27T21:07:47.817Z,64.90
2018-06-27T21:10:17.144Z,64.80
2018-06-27T21:12:46.402Z,65.30
2018-06-27T21:15:16.532Z,64.60
2018-06-27T21:17:45.903Z,66.10
2018-06-27T21:20:15.907Z,66.90
2018-06-27T21:22:45.177Z,66.80
2018-06-27T21:25:14.488Z,67.00
2018-06-27T21:27:43.777Z,67.50
2018-06-27T21:30:13.554Z,67.80
2018-06-27T21:32:47.463Z,68.30
2018-06-27T21:35:16.712Z,68.60
2018-06-27T21:37:46.318Z,68.40
2018-06-27T21:40:16.359Z,69.00
2018-06-27T21:42:45.607Z,69.10
2018-06-27T21:45:14.997Z,69.20
2018-06-27T21:47:44.266Z,69.40
2018-06-27T21:50:13.564Z,69.70
2018-06-27T21:52:42.940Z,70.30
2018-06-27T21:55:12.257Z,70.80
2018-06-27T21:57:41.873Z,70.70
2018-06-27T22:00:12.338Z,70.90
2018-06-27T22:15:36.661Z,71.20
2018-06-27T22:18:05.998Z,72.70
2018-06-27T22:20:35.988Z,73.40
2018-06-27T22:23:05.248Z,73.30
2018-06-27T22:25:35.060Z,73.40
2018-06-27T22:28:04.451Z,73.00
2018-06-27T22:30:34.007Z,73.80
2018-06-27T22:33:08.433Z,73.80
2018-06-27T22:35:37.684Z,73.90
2018-06-27T22:38:06.976Z,74.40
2018-06-27T22:40:36.693Z,74.20
2018-06-27T22:43:06.033Z,75.00
2018-06-27T22:45:35.605Z,74.60
2018-06-27T22:48:05.581Z,75.00
2018-06-27T22:50:35.276Z,75.20
2018-06-27T22:53:04.743Z,75.20
2018-06-27T22:55:34.048Z,75.10
2018-06-27T22:58:03.707Z,74.90
2018-06-27T23:00:32.972Z,75.10
2018-06-27T23:03:02.281Z,75.20
2018-06-27T23:05:32.040Z,75.70
2018-06-27T23:08:01.285Z,76.30
2018-06-27T23:10:30.598Z,75.80
2018-06-27T23:13:03.689Z,76.50
2018-06-27T23:15:32.987Z,76.30
2018-06-27T23:18:02.268Z,76.60
2018-06-27T23:20:31.548Z,77.20
2018-06-27T23:23:01.610Z,77.00
2018-06-27T23:25:31.362Z,77.30
2018-06-27T23:28:00.652Z,77.50
2018-06-27T23:30:29.888Z,77.80
2018-06-27T23:32:59.117Z,77.70
2018-06-27T23:35:28.350Z,78.10
2018-06-27T23:37:57.620Z,78.60
2018-06-27T23:40:26.892Z,79.00
2018-06-27T23:42:56.126Z,79.20
2018-06-27T23:45:25.376Z,79.40
2018-06-27T23:47:54.604Z,80.00
2018-06-27T23:50:23.851Z,79.40
2018-06-27T23:52:53.084Z,79.30
2018-06-27T23:55:22.331Z,79.20
2018-06-27T23:57:51.585Z,79.90
